sensor_id;sensor_type;location;lat;lon;timestamp;temperature;humidity
80290;SHT30;69592;44.804;-0.550;2023-04-25T00:00:01;13.79;83.01
80290;SHT30;69592;44.804;-0.550;2023-04-25T00:02:27;13.67;83.25
80290;SHT30;69592;44.804;-0.550;2023-04-25T00:04:53;13.69;83.81
80290;SHT30;69592;44.804;-0.550;2023-04-25T00:07:19;13.65;83.88
80290;SHT30;69592;44.804;-0.550;2023-04-25T00:09:45;13.56;83.20
80290;SHT30;69592;44.804;-0.550;2023-04-25T00:12:16;13.50;83.76
80290;SHT30;69592;44.804;-0.550;2023-04-25T00:14:42;13.67;83.04
80290;SHT30;69592;44.804;-0.550;2023-04-25T00:17:08;13.47;83.42
80290;SHT30;69592;44.804;-0.550;2023-04-25T00:19:33;13.45;84.07
80290;SHT30;69592;44.804;-0.550;2023-04-25T00:22:00;13.62;83.47
80290;SHT30;69592;44.804;-0.550;2023-04-25T00:24:25;13.62;83.12
80290;SHT30;69592;44.804;-0.550;2023-04-25T00:26:50;13.63;82.55
80290;SHT30;69592;44.804;-0.550;2023-04-25T00:29:16;13.69;82.62
80290;SHT30;69592;44.804;-0.550;2023-04-25T00:31:41;13.59;83.12
80290;SHT30;69592;44.804;-0.550;2023-04-25T00:34:07;13.71;82.69
80290;SHT30;69592;44.804;-0.550;2023-04-25T00:36:33;13.77;82.46
80290;SHT30;69592;44.804;-0.550;2023-04-25T00:38:59;13.77;82.81
80290;SHT30;69592;44.804;-0.550;2023-04-25T00:41:25;13.81;82.47
80290;SHT30;69592;44.804;-0.550;2023-04-25T00:43:54;13.77;82.58
80290;SHT30;69592;44.804;-0.550;2023-04-25T00:46:19;13.81;82.40
80290;SHT30;69592;44.804;-0.550;2023-04-25T00:48:45;13.87;82.38
80290;SHT30;69592;44.804;-0.550;2023-04-25T00:51:16;13.76;82.48
80290;SHT30;69592;44.804;-0.550;2023-04-25T00:53:42;13.67;83.30
80290;SHT30;69592;44.804;-0.550;2023-04-25T00:56:07;13.59;83.19
80290;SHT30;69592;44.804;-0.550;2023-04-25T00:58:33;13.66;82.27
80290;SHT30;69592;44.804;-0.550;2023-04-25T01:00:59;13.56;82.95
80290;SHT30;69592;44.804;-0.550;2023-04-25T01:03:25;13.52;82.90
80290;SHT30;69592;44.804;-0.550;2023-04-25T01:05:54;13.43;83.50
80290;SHT30;69592;44.804;-0.550;2023-04-25T01:08:24;13.38;83.89
80290;SHT30;69592;44.804;-0.550;2023-04-25T01:10:52;13.42;83.25
80290;SHT30;69592;44.804;-0.550;2023-04-25T01:13:17;13.42;84.04
80290;SHT30;69592;44.804;-0.550;2023-04-25T01:15:43;13.50;83.40
80290;SHT30;69592;44.804;-0.550;2023-04-25T01:18:09;13.56;83.53
80290;SHT30;69592;44.804;-0.550;2023-04-25T01:20:37;13.62;83.02
80290;SHT30;69592;44.804;-0.550;2023-04-25T01:23:04;13.62;82.58
80290;SHT30;69592;44.804;-0.550;2023-04-25T01:25:30;13.46;82.64
80290;SHT30;69592;44.804;-0.550;2023-04-25T01:27:57;13.55;82.53
80290;SHT30;69592;44.804;-0.550;2023-04-25T01:30:25;13.62;82.42
80290;SHT30;69592;44.804;-0.550;2023-04-25T01:32:53;13.65;82.16
80290;SHT30;69592;44.804;-0.550;2023-04-25T01:35:19;13.57;82.73
80290;SHT30;69592;44.804;-0.550;2023-04-25T01:37:45;13.74;82.30
80290;SHT30;69592;44.804;-0.550;2023-04-25T01:40:11;13.86;81.96
80290;SHT30;69592;44.804;-0.550;2023-04-25T01:42:39;13.86;82.06
80290;SHT30;69592;44.804;-0.550;2023-04-25T01:45:05;13.81;81.69
80290;SHT30;69592;44.804;-0.550;2023-04-25T01:47:31;13.69;81.93
80290;SHT30;69592;44.804;-0.550;2023-04-25T01:49:57;13.73;81.95
80290;SHT30;69592;44.804;-0.550;2023-04-25T01:52:22;13.76;82.04
80290;SHT30;69592;44.804;-0.550;2023-04-25T01:54:48;13.86;81.81
80290;SHT30;69592;44.804;-0.550;2023-04-25T01:57:15;13.93;81.17
80290;SHT30;69592;44.804;-0.550;2023-04-25T01:59:41;13.79;81.84
80290;SHT30;69592;44.804;-0.550;2023-04-25T02:02:06;13.81;81.29
80290;SHT30;69592;44.804;-0.550;2023-04-25T02:04:32;13.76;81.94
80290;SHT30;69592;44.804;-0.550;2023-04-25T02:06:57;13.71;81.77
80290;SHT30;69592;44.804;-0.550;2023-04-25T02:09:24;13.73;82.39
80290;SHT30;69592;44.804;-0.550;2023-04-25T02:11:49;13.79;81.93
80290;SHT30;69592;44.804;-0.550;2023-04-25T02:14:16;13.83;81.55
80290;SHT30;69592;44.804;-0.550;2023-04-25T02:16:43;13.79;82.15
80290;SHT30;69592;44.804;-0.550;2023-04-25T02:19:14;13.87;81.76
80290;SHT30;69592;44.804;-0.550;2023-04-25T02:21:39;13.83;81.82
80290;SHT30;69592;44.804;-0.550;2023-04-25T02:24:05;13.76;81.96
80290;SHT30;69592;44.804;-0.550;2023-04-25T02:26:31;13.66;82.31
80290;SHT30;69592;44.804;-0.550;2023-04-25T02:29:02;13.56;82.80
80290;SHT30;69592;44.804;-0.550;2023-04-25T02:31:27;13.59;83.41
80290;SHT30;69592;44.804;-0.550;2023-04-25T02:33:53;13.76;82.66
80290;SHT30;69592;44.804;-0.550;2023-04-25T02:36:19;13.70;82.83
80290;SHT30;69592;44.804;-0.550;2023-04-25T02:38:44;13.67;82.79
80290;SHT30;69592;44.804;-0.550;2023-04-25T02:41:10;13.62;82.48
80290;SHT30;69592;44.804;-0.550;2023-04-25T02:43:35;13.70;82.53
80290;SHT30;69592;44.804;-0.550;2023-04-25T02:46:00;13.62;82.90
80290;SHT30;69592;44.804;-0.550;2023-04-25T02:48:26;13.57;82.96
80290;SHT30;69592;44.804;-0.550;2023-04-25T02:50:51;13.66;82.56
80290;SHT30;69592;44.804;-0.550;2023-04-25T02:53:16;13.69;82.91
80290;SHT30;69592;44.804;-0.550;2023-04-25T02:55:43;13.73;82.38
80290;SHT30;69592;44.804;-0.550;2023-04-25T02:58:08;13.71;82.85
80290;SHT30;69592;44.804;-0.550;2023-04-25T03:00:35;13.70;82.69
80290;SHT30;69592;44.804;-0.550;2023-04-25T03:03:03;13.76;82.01
80290;SHT30;69592;44.804;-0.550;2023-04-25T03:05:30;13.77;82.73
80290;SHT30;69592;44.804;-0.550;2023-04-25T03:08:02;13.76;82.77
80290;SHT30;69592;44.804;-0.550;2023-04-25T03:10:29;13.69;82.50
80290;SHT30;69592;44.804;-0.550;2023-04-25T03:12:56;13.73;82.83
80290;SHT30;69592;44.804;-0.550;2023-04-25T03:15:23;13.73;82.66
80290;SHT30;69592;44.804;-0.550;2023-04-25T03:17:49;13.76;82.68
80290;SHT30;69592;44.804;-0.550;2023-04-25T03:20:14;13.66;83.18
80290;SHT30;69592;44.804;-0.550;2023-04-25T03:22:39;13.69;83.07
80290;SHT30;69592;44.804;-0.550;2023-04-25T03:25:07;13.62;83.00
80290;SHT30;69592;44.804;-0.550;2023-04-25T03:27:37;13.71;82.84
80290;SHT30;69592;44.804;-0.550;2023-04-25T03:30:03;13.70;82.91
80290;SHT30;69592;44.804;-0.550;2023-04-25T03:32:30;13.71;82.89
80290;SHT30;69592;44.804;-0.550;2023-04-25T03:34:56;13.81;82.54
80290;SHT30;69592;44.804;-0.550;2023-04-25T03:37:21;13.73;83.07
80290;SHT30;69592;44.804;-0.550;2023-04-25T03:39:46;13.70;83.10
80290;SHT30;69592;44.804;-0.550;2023-04-25T03:42:12;13.65;83.40
80290;SHT30;69592;44.804;-0.550;2023-04-25T03:44:37;13.73;82.91
80290;SHT30;69592;44.804;-0.550;2023-04-25T03:47:02;13.70;83.08
80290;SHT30;69592;44.804;-0.550;2023-04-25T03:49:28;13.67;83.61
80290;SHT30;69592;44.804;-0.550;2023-04-25T03:51:54;13.76;83.16
80290;SHT30;69592;44.804;-0.550;2023-04-25T03:54:19;13.74;83.13
80290;SHT30;69592;44.804;-0.550;2023-04-25T03:56:45;13.66;83.37
80290;SHT30;69592;44.804;-0.550;2023-04-25T03:59:10;13.76;82.90
80290;SHT30;69592;44.804;-0.550;2023-04-25T04:01:36;13.71;83.54
80290;SHT30;69592;44.804;-0.550;2023-04-25T04:04:01;13.74;83.34
80290;SHT30;69592;44.804;-0.550;2023-04-25T04:06:27;13.63;83.64
80290;SHT30;69592;44.804;-0.550;2023-04-25T04:08:53;13.63;83.25
80290;SHT30;69592;44.804;-0.550;2023-04-25T04:11:19;13.55;83.40
80290;SHT30;69592;44.804;-0.550;2023-04-25T04:13:45;13.38;83.85
80290;SHT30;69592;44.804;-0.550;2023-04-25T04:16:11;13.47;83.65
80290;SHT30;69592;44.804;-0.550;2023-04-25T04:18:37;13.47;84.10
80290;SHT30;69592;44.804;-0.550;2023-04-25T04:21:03;13.60;82.92
80290;SHT30;69592;44.804;-0.550;2023-04-25T04:23:29;13.52;83.04
80290;SHT30;69592;44.804;-0.550;2023-04-25T04:25:56;13.53;82.87
80290;SHT30;69592;44.804;-0.550;2023-04-25T04:28:22;13.47;84.08
80290;SHT30;69592;44.804;-0.550;2023-04-25T04:30:53;13.42;84.10
80290;SHT30;69592;44.804;-0.550;2023-04-25T04:33:42;13.22;84.21
80290;SHT30;69592;44.804;-0.550;2023-04-25T04:36:11;13.26;83.93
80290;SHT30;69592;44.804;-0.550;2023-04-25T04:38:39;13.35;83.87
80290;SHT30;69592;44.804;-0.550;2023-04-25T04:41:10;13.32;83.46
80290;SHT30;69592;44.804;-0.550;2023-04-25T04:43:44;13.38;84.19
80290;SHT30;69592;44.804;-0.550;2023-04-25T04:46:10;13.42;83.22
80290;SHT30;69592;44.804;-0.550;2023-04-25T04:48:38;13.43;83.08
80290;SHT30;69592;44.804;-0.550;2023-04-25T04:51:05;13.39;83.88
80290;SHT30;69592;44.804;-0.550;2023-04-25T04:53:31;13.50;83.05
80290;SHT30;69592;44.804;-0.550;2023-04-25T04:55:56;13.55;83.10
80290;SHT30;69592;44.804;-0.550;2023-04-25T04:58:22;13.50;83.21
80290;SHT30;69592;44.804;-0.550;2023-04-25T05:00:48;13.50;82.84
80290;SHT30;69592;44.804;-0.550;2023-04-25T05:03:13;13.57;82.85
80290;SHT30;69592;44.804;-0.550;2023-04-25T05:05:38;13.66;82.36
80290;SHT30;69592;44.804;-0.550;2023-04-25T05:08:05;13.71;82.40
80290;SHT30;69592;44.804;-0.550;2023-04-25T05:10:31;13.63;82.79
80290;SHT30;69592;44.804;-0.550;2023-04-25T05:12:56;13.71;82.68
80290;SHT30;69592;44.804;-0.550;2023-04-25T05:15:22;13.59;82.48
80290;SHT30;69592;44.804;-0.550;2023-04-25T05:17:47;13.57;82.51
80290;SHT30;69592;44.804;-0.550;2023-04-25T05:20:12;13.60;82.03
80290;SHT30;69592;44.804;-0.550;2023-04-25T05:22:39;13.56;82.35
80290;SHT30;69592;44.804;-0.550;2023-04-25T05:25:07;13.59;82.21
80290;SHT30;69592;44.804;-0.550;2023-04-25T05:27:32;13.69;81.97
80290;SHT30;69592;44.804;-0.550;2023-04-25T05:29:58;13.76;81.84
80290;SHT30;69592;44.804;-0.550;2023-04-25T05:32:23;13.74;81.56
80290;SHT30;69592;44.804;-0.550;2023-04-25T05:34:50;13.71;81.65
80290;SHT30;69592;44.804;-0.550;2023-04-25T05:37:15;13.71;81.82
80290;SHT30;69592;44.804;-0.550;2023-04-25T05:39:40;13.70;81.19
80290;SHT30;69592;44.804;-0.550;2023-04-25T05:42:06;13.73;81.48
80290;SHT30;69592;44.804;-0.550;2023-04-25T05:44:31;13.70;82.24
80290;SHT30;69592;44.804;-0.550;2023-04-25T05:46:56;13.67;82.30
80290;SHT30;69592;44.804;-0.550;2023-04-25T05:49:22;13.62;81.19
80290;SHT30;69592;44.804;-0.550;2023-04-25T05:51:47;13.69;80.82
80290;SHT30;69592;44.804;-0.550;2023-04-25T05:54:14;13.77;81.27
80290;SHT30;69592;44.804;-0.550;2023-04-25T05:56:39;13.80;80.92
80290;SHT30;69592;44.804;-0.550;2023-04-25T05:59:05;13.83;80.51
80290;SHT30;69592;44.804;-0.550;2023-04-25T06:01:35;13.83;80.47
80290;SHT30;69592;44.804;-0.550;2023-04-25T06:04:01;13.77;80.31
80290;SHT30;69592;44.804;-0.550;2023-04-25T06:06:26;13.73;80.45
80290;SHT30;69592;44.804;-0.550;2023-04-25T06:08:52;13.71;80.38
80290;SHT30;69592;44.804;-0.550;2023-04-25T06:11:18;13.69;80.72
80290;SHT30;69592;44.804;-0.550;2023-04-25T06:13:43;13.71;80.55
80290;SHT30;69592;44.804;-0.550;2023-04-25T06:16:08;13.74;80.43
80290;SHT30;69592;44.804;-0.550;2023-04-25T06:18:34;13.65;80.43
80290;SHT30;69592;44.804;-0.550;2023-04-25T06:20:59;13.74;80.97
80290;SHT30;69592;44.804;-0.550;2023-04-25T06:23:25;13.80;80.99
80290;SHT30;69592;44.804;-0.550;2023-04-25T06:25:50;13.63;80.19
80290;SHT30;69592;44.804;-0.550;2023-04-25T06:28:16;13.63;80.78
80290;SHT30;69592;44.804;-0.550;2023-04-25T06:30:41;13.76;79.77
80290;SHT30;69592;44.804;-0.550;2023-04-25T06:33:06;13.69;79.93
80290;SHT30;69592;44.804;-0.550;2023-04-25T06:35:33;13.71;80.32
80290;SHT30;69592;44.804;-0.550;2023-04-25T06:37:59;13.73;79.95
80290;SHT30;69592;44.804;-0.550;2023-04-25T06:40:25;13.79;80.28
80290;SHT30;69592;44.804;-0.550;2023-04-25T06:42:50;13.94;80.50
80290;SHT30;69592;44.804;-0.550;2023-04-25T06:45:15;13.96;79.56
80290;SHT30;69592;44.804;-0.550;2023-04-25T06:47:41;13.83;79.51
80290;SHT30;69592;44.804;-0.550;2023-04-25T06:50:06;13.96;79.57
80290;SHT30;69592;44.804;-0.550;2023-04-25T06:52:32;13.91;79.89
80290;SHT30;69592;44.804;-0.550;2023-04-25T06:54:57;13.96;79.19
80290;SHT30;69592;44.804;-0.550;2023-04-25T06:57:23;14.07;79.51
80290;SHT30;69592;44.804;-0.550;2023-04-25T06:59:49;13.97;79.49
80290;SHT30;69592;44.804;-0.550;2023-04-25T07:02:14;14.04;79.96
80290;SHT30;69592;44.804;-0.550;2023-04-25T07:04:39;14.11;78.72
80290;SHT30;69592;44.804;-0.550;2023-04-25T07:07:05;14.03;78.94
80290;SHT30;69592;44.804;-0.550;2023-04-25T07:09:30;14.03;79.61
80290;SHT30;69592;44.804;-0.550;2023-04-25T07:11:58;14.13;79.04
80290;SHT30;69592;44.804;-0.550;2023-04-25T07:14:24;14.14;78.62
80290;SHT30;69592;44.804;-0.550;2023-04-25T07:16:50;14.04;79.33
80290;SHT30;69592;44.804;-0.550;2023-04-25T07:19:15;14.20;79.97
80290;SHT30;69592;44.804;-0.550;2023-04-25T07:21:41;14.06;80.23
80290;SHT30;69592;44.804;-0.550;2023-04-25T07:24:06;14.14;79.51
80290;SHT30;69592;44.804;-0.550;2023-04-25T07:26:32;14.14;79.34
80290;SHT30;69592;44.804;-0.550;2023-04-25T07:28:57;14.16;78.99
80290;SHT30;69592;44.804;-0.550;2023-04-25T07:31:23;14.24;79.55
80290;SHT30;69592;44.804;-0.550;2023-04-25T07:33:57;14.34;79.46
80290;SHT30;69592;44.804;-0.550;2023-04-25T07:36:25;14.22;79.37
80290;SHT30;69592;44.804;-0.550;2023-04-25T07:38:52;14.20;79.47
80290;SHT30;69592;44.804;-0.550;2023-04-25T07:41:18;14.38;79.75
80290;SHT30;69592;44.804;-0.550;2023-04-25T07:43:43;14.41;79.42
80290;SHT30;69592;44.804;-0.550;2023-04-25T07:46:08;14.45;78.73
80290;SHT30;69592;44.804;-0.550;2023-04-25T07:48:34;14.45;78.28
80290;SHT30;69592;44.804;-0.550;2023-04-25T07:50:59;14.27;78.57
80290;SHT30;69592;44.804;-0.550;2023-04-25T07:53:24;14.38;79.49
80290;SHT30;69592;44.804;-0.550;2023-04-25T07:55:50;14.28;78.55
80290;SHT30;69592;44.804;-0.550;2023-04-25T07:58:15;14.48;78.65
80290;SHT30;69592;44.804;-0.550;2023-04-25T08:00:41;14.65;77.75
80290;SHT30;69592;44.804;-0.550;2023-04-25T08:03:08;14.62;78.36
80290;SHT30;69592;44.804;-0.550;2023-04-25T08:05:33;14.86;77.74
80290;SHT30;69592;44.804;-0.550;2023-04-25T08:07:59;14.92;77.36
80290;SHT30;69592;44.804;-0.550;2023-04-25T08:10:24;14.89;77.82
80290;SHT30;69592;44.804;-0.550;2023-04-25T08:12:50;14.92;76.73
80290;SHT30;69592;44.804;-0.550;2023-04-25T08:15:15;14.75;75.55
80290;SHT30;69592;44.804;-0.550;2023-04-25T08:17:40;14.79;76.41
80290;SHT30;69592;44.804;-0.550;2023-04-25T08:20:06;14.71;77.20
80290;SHT30;69592;44.804;-0.550;2023-04-25T08:22:32;14.64;77.00
80290;SHT30;69592;44.804;-0.550;2023-04-25T08:24:57;14.49;76.20
80290;SHT30;69592;44.804;-0.550;2023-04-25T08:27:23;14.58;76.98
80290;SHT30;69592;44.804;-0.550;2023-04-25T08:29:49;14.40;76.44
80290;SHT30;69592;44.804;-0.550;2023-04-25T08:32:15;14.65;76.91
80290;SHT30;69592;44.804;-0.550;2023-04-25T08:34:40;14.72;76.32
80290;SHT30;69592;44.804;-0.550;2023-04-25T08:37:08;14.85;77.44
80290;SHT30;69592;44.804;-0.550;2023-04-25T08:39:35;15.10;76.52
80290;SHT30;69592;44.804;-0.550;2023-04-25T08:42:02;15.23;75.51
80290;SHT30;69592;44.804;-0.550;2023-04-25T08:44:33;15.34;74.95
80290;SHT30;69592;44.804;-0.550;2023-04-25T08:46:59;15.09;74.85
80290;SHT30;69592;44.804;-0.550;2023-04-25T08:49:25;15.22;74.16
80290;SHT30;69592;44.804;-0.550;2023-04-25T08:51:52;15.18;74.47
80290;SHT30;69592;44.804;-0.550;2023-04-25T08:54:20;15.32;75.97
80290;SHT30;69592;44.804;-0.550;2023-04-25T08:56:48;15.50;75.23
80290;SHT30;69592;44.804;-0.550;2023-04-25T08:59:13;15.37;74.74
80290;SHT30;69592;44.804;-0.550;2023-04-25T09:01:39;15.65;75.70
80290;SHT30;69592;44.804;-0.550;2023-04-25T09:04:04;15.37;74.40
80290;SHT30;69592;44.804;-0.550;2023-04-25T09:06:30;15.24;74.35
80290;SHT30;69592;44.804;-0.550;2023-04-25T09:09:07;15.16;75.01
80290;SHT30;69592;44.804;-0.550;2023-04-25T09:11:34;15.42;73.85
80290;SHT30;69592;44.804;-0.550;2023-04-25T09:15:09;15.42;73.16
80290;SHT30;69592;44.804;-0.550;2023-04-25T09:17:35;15.46;74.07
80290;SHT30;69592;44.804;-0.550;2023-04-25T09:20:06;15.70;72.67
80290;SHT30;69592;44.804;-0.550;2023-04-25T09:22:33;15.77;71.83
80290;SHT30;69592;44.804;-0.550;2023-04-25T09:25:02;16.18;72.11
80290;SHT30;69592;44.804;-0.550;2023-04-25T09:27:28;16.26;71.66
80290;SHT30;69592;44.804;-0.550;2023-04-25T09:29:58;16.19;71.86
80290;SHT30;69592;44.804;-0.550;2023-04-25T09:32:25;16.26;71.60
80290;SHT30;69592;44.804;-0.550;2023-04-25T09:34:56;15.95;72.63
80290;SHT30;69592;44.804;-0.550;2023-04-25T09:37:29;15.87;73.98
80290;SHT30;69592;44.804;-0.550;2023-04-25T09:39:59;16.28;74.14
80290;SHT30;69592;44.804;-0.550;2023-04-25T09:42:26;16.30;71.18
80290;SHT30;69592;44.804;-0.550;2023-04-25T09:44:55;16.26;70.93
80290;SHT30;69592;44.804;-0.550;2023-04-25T09:47:23;16.32;69.84
80290;SHT30;69592;44.804;-0.550;2023-04-25T09:49:50;16.35;71.18
80290;SHT30;69592;44.804;-0.550;2023-04-25T09:52:20;16.69;70.23
80290;SHT30;69592;44.804;-0.550;2023-04-25T09:54:48;16.70;69.33
80290;SHT30;69592;44.804;-0.550;2023-04-25T09:57:15;16.72;70.91
80290;SHT30;69592;44.804;-0.550;2023-04-25T09:59:51;16.36;70.06
80290;SHT30;69592;44.804;-0.550;2023-04-25T10:02:24;16.25;71.23
80290;SHT30;69592;44.804;-0.550;2023-04-25T10:04:52;16.24;70.96
80290;SHT30;69592;44.804;-0.550;2023-04-25T10:07:24;16.45;71.03
80290;SHT30;69592;44.804;-0.550;2023-04-25T10:09:55;16.05;71.42
80290;SHT30;69592;44.804;-0.550;2023-04-25T10:12:24;15.93;71.86
80290;SHT30;69592;44.804;-0.550;2023-04-25T10:14:50;16.00;71.81
80290;SHT30;69592;44.804;-0.550;2023-04-25T10:17:17;16.12;73.57
80290;SHT30;69592;44.804;-0.550;2023-04-25T10:19:43;16.05;72.79
80290;SHT30;69592;44.804;-0.550;2023-04-25T10:22:13;15.81;70.79
80290;SHT30;69592;44.804;-0.550;2023-04-25T10:24:39;15.71;71.84
80290;SHT30;69592;44.804;-0.550;2023-04-25T10:27:06;15.81;73.40
80290;SHT30;69592;44.804;-0.550;2023-04-25T10:29:34;15.80;72.54
80290;SHT30;69592;44.804;-0.550;2023-04-25T10:32:00;15.61;72.70
80290;SHT30;69592;44.804;-0.550;2023-04-25T10:34:43;15.58;74.52
80290;SHT30;69592;44.804;-0.550;2023-04-25T10:37:12;16.04;73.77
80290;SHT30;69592;44.804;-0.550;2023-04-25T10:39:39;16.35;74.55
80290;SHT30;69592;44.804;-0.550;2023-04-25T10:42:05;16.48;72.16
80290;SHT30;69592;44.804;-0.550;2023-04-25T10:44:32;16.30;73.69
80290;SHT30;69592;44.804;-0.550;2023-04-25T10:46:59;16.45;74.42
80290;SHT30;69592;44.804;-0.550;2023-04-25T10:49:29;16.44;72.98
80290;SHT30;69592;44.804;-0.550;2023-04-25T10:52:14;16.65;73.84
80290;SHT30;69592;44.804;-0.550;2023-04-25T10:54:46;16.81;72.55
80290;SHT30;69592;44.804;-0.550;2023-04-25T10:57:31;16.89;73.14
80290;SHT30;69592;44.804;-0.550;2023-04-25T11:02:48;16.45;73.79
80290;SHT30;69592;44.804;-0.550;2023-04-25T11:05:20;16.39;74.58
80290;SHT30;69592;44.804;-0.550;2023-04-25T11:07:53;16.56;72.21
80290;SHT30;69592;44.804;-0.550;2023-04-25T11:10:30;16.69;72.01
80290;SHT30;69592;44.804;-0.550;2023-04-25T11:12:57;16.51;72.33
80290;SHT30;69592;44.804;-0.550;2023-04-25T11:15:22;16.26;72.61
80290;SHT30;69592;44.804;-0.550;2023-04-25T11:17:51;15.87;73.98
80290;SHT30;69592;44.804;-0.550;2023-04-25T11:20:16;15.91;74.39
80290;SHT30;69592;44.804;-0.550;2023-04-25T11:22:44;16.52;73.48
80290;SHT30;69592;44.804;-0.550;2023-04-25T11:25:11;17.09;71.00
80290;SHT30;69592;44.804;-0.550;2023-04-25T11:27:52;17.24;71.20
80290;SHT30;69592;44.804;-0.550;2023-04-25T11:30:18;17.42;67.91
80290;SHT30;69592;44.804;-0.550;2023-04-25T11:32:44;17.50;68.00
80290;SHT30;69592;44.804;-0.550;2023-04-25T11:35:10;17.75;68.14
80290;SHT30;69592;44.804;-0.550;2023-04-25T11:37:38;18.12;69.38
80290;SHT30;69592;44.804;-0.550;2023-04-25T11:40:05;17.64;64.52
80290;SHT30;69592;44.804;-0.550;2023-04-25T11:42:31;17.68;68.36
80290;SHT30;69592;44.804;-0.550;2023-04-25T11:44:58;17.91;68.48
80290;SHT30;69592;44.804;-0.550;2023-04-25T11:47:30;17.55;65.05
80290;SHT30;69592;44.804;-0.550;2023-04-25T11:49:58;17.45;67.65
80290;SHT30;69592;44.804;-0.550;2023-04-25T11:52:23;17.81;67.38
80290;SHT30;69592;44.804;-0.550;2023-04-25T11:54:49;17.89;66.04
80290;SHT30;69592;44.804;-0.550;2023-04-25T11:57:14;17.79;65.18
80290;SHT30;69592;44.804;-0.550;2023-04-25T11:59:43;17.75;67.76
80290;SHT30;69592;44.804;-0.550;2023-04-25T12:02:09;17.61;66.88
80290;SHT30;69592;44.804;-0.550;2023-04-25T12:04:34;17.35;66.79
80290;SHT30;69592;44.804;-0.550;2023-04-25T12:07:00;17.51;67.87
80290;SHT30;69592;44.804;-0.550;2023-04-25T12:09:31;17.47;67.45
80290;SHT30;69592;44.804;-0.550;2023-04-25T12:11:58;17.38;67.86
80290;SHT30;69592;44.804;-0.550;2023-04-25T12:14:29;17.26;66.09
80290;SHT30;69592;44.804;-0.550;2023-04-25T12:16:56;17.32;67.84
80290;SHT30;69592;44.804;-0.550;2023-04-25T12:19:23;17.77;65.01
80290;SHT30;69592;44.804;-0.550;2023-04-25T12:21:50;18.12;64.61
80290;SHT30;69592;44.804;-0.550;2023-04-25T12:24:23;17.82;66.00
80290;SHT30;69592;44.804;-0.550;2023-04-25T12:26:59;17.41;66.19
80290;SHT30;69592;44.804;-0.550;2023-04-25T12:29:26;17.67;64.84
80290;SHT30;69592;44.804;-0.550;2023-04-25T12:31:53;17.86;64.23
80290;SHT30;69592;44.804;-0.550;2023-04-25T12:34:20;18.02;63.17
80290;SHT30;69592;44.804;-0.550;2023-04-25T12:36:46;18.10;62.71
80290;SHT30;69592;44.804;-0.550;2023-04-25T12:39:19;18.12;62.48
80290;SHT30;69592;44.804;-0.550;2023-04-25T12:41:44;18.09;61.89
80290;SHT30;69592;44.804;-0.550;2023-04-25T12:44:10;18.08;64.77
80290;SHT30;69592;44.804;-0.550;2023-04-25T12:46:37;17.91;65.57
80290;SHT30;69592;44.804;-0.550;2023-04-25T12:49:03;17.91;64.76
80290;SHT30;69592;44.804;-0.550;2023-04-25T12:51:29;18.22;64.34
80290;SHT30;69592;44.804;-0.550;2023-04-25T12:53:54;18.01;62.89
80290;SHT30;69592;44.804;-0.550;2023-04-25T12:56:20;18.05;63.64
80290;SHT30;69592;44.804;-0.550;2023-04-25T12:58:46;17.89;65.45
80290;SHT30;69592;44.804;-0.550;2023-04-25T13:01:13;18.25;64.08
80290;SHT30;69592;44.804;-0.550;2023-04-25T13:03:39;18.35;63.64
80290;SHT30;69592;44.804;-0.550;2023-04-25T13:06:06;18.33;65.59
80290;SHT30;69592;44.804;-0.550;2023-04-25T13:08:31;18.55;64.14
80290;SHT30;69592;44.804;-0.550;2023-04-25T13:10:56;18.40;63.38
80290;SHT30;69592;44.804;-0.550;2023-04-25T13:13:22;17.92;64.72
80290;SHT30;69592;44.804;-0.550;2023-04-25T13:15:47;17.91;65.80
80290;SHT30;69592;44.804;-0.550;2023-04-25T13:18:12;17.98;63.86
80290;SHT30;69592;44.804;-0.550;2023-04-25T13:20:38;17.85;64.61
80290;SHT30;69592;44.804;-0.550;2023-04-25T13:23:03;18.21;63.74
80290;SHT30;69592;44.804;-0.550;2023-04-25T13:25:28;18.39;63.22
80290;SHT30;69592;44.804;-0.550;2023-04-25T13:27:54;18.33;65.24
80290;SHT30;69592;44.804;-0.550;2023-04-25T13:30:20;18.13;63.96
80290;SHT30;69592;44.804;-0.550;2023-04-25T13:32:46;18.08;67.07
80290;SHT30;69592;44.804;-0.550;2023-04-25T13:35:13;18.15;66.46
80290;SHT30;69592;44.804;-0.550;2023-04-25T13:37:39;18.13;65.13
80290;SHT30;69592;44.804;-0.550;2023-04-25T13:40:07;17.98;66.59
80290;SHT30;69592;44.804;-0.550;2023-04-25T13:42:37;18.17;68.12
80290;SHT30;69592;44.804;-0.550;2023-04-25T13:45:03;18.37;67.56
80290;SHT30;69592;44.804;-0.550;2023-04-25T13:47:29;18.23;64.16
80290;SHT30;69592;44.804;-0.550;2023-04-25T13:49:55;18.28;65.62
80290;SHT30;69592;44.804;-0.550;2023-04-25T13:52:21;18.46;66.40
80290;SHT30;69592;44.804;-0.550;2023-04-25T13:54:46;18.61;65.20
80290;SHT30;69592;44.804;-0.550;2023-04-25T13:57:12;18.15;65.37
80290;SHT30;69592;44.804;-0.550;2023-04-25T13:59:39;18.25;66.98
80290;SHT30;69592;44.804;-0.550;2023-04-25T14:02:06;18.57;65.67
80290;SHT30;69592;44.804;-0.550;2023-04-25T14:04:31;19.11;63.40
80290;SHT30;69592;44.804;-0.550;2023-04-25T14:06:57;19.39;64.21
80290;SHT30;69592;44.804;-0.550;2023-04-25T14:09:23;19.34;62.84
80290;SHT30;69592;44.804;-0.550;2023-04-25T14:11:54;19.11;65.22
80290;SHT30;69592;44.804;-0.550;2023-04-25T14:14:20;19.38;63.03
80290;SHT30;69592;44.804;-0.550;2023-04-25T14:16:47;19.10;63.02
80290;SHT30;69592;44.804;-0.550;2023-04-25T14:19:17;18.96;63.63
80290;SHT30;69592;44.804;-0.550;2023-04-25T14:21:43;19.42;63.06
80290;SHT30;69592;44.804;-0.550;2023-04-25T14:24:09;19.17;62.45
80290;SHT30;69592;44.804;-0.550;2023-04-25T14:26:36;18.87;63.81
80290;SHT30;69592;44.804;-0.550;2023-04-25T14:29:05;18.49;63.68
80290;SHT30;69592;44.804;-0.550;2023-04-25T14:31:32;18.39;64.97
80290;SHT30;69592;44.804;-0.550;2023-04-25T14:33:57;18.60;64.47
80290;SHT30;69592;44.804;-0.550;2023-04-25T14:36:23;18.63;64.53
80290;SHT30;69592;44.804;-0.550;2023-04-25T14:38:48;18.74;64.34
80290;SHT30;69592;44.804;-0.550;2023-04-25T14:41:14;18.63;63.72
80290;SHT30;69592;44.804;-0.550;2023-04-25T14:43:39;18.32;65.00
80290;SHT30;69592;44.804;-0.550;2023-04-25T14:46:06;18.06;65.12
80290;SHT30;69592;44.804;-0.550;2023-04-25T14:48:32;17.95;65.40
80290;SHT30;69592;44.804;-0.550;2023-04-25T14:50:57;18.09;65.79
80290;SHT30;69592;44.804;-0.550;2023-04-25T14:53:24;17.85;65.49
80290;SHT30;69592;44.804;-0.550;2023-04-25T14:55:50;17.88;66.32
80290;SHT30;69592;44.804;-0.550;2023-04-25T14:58:15;17.86;65.46
80290;SHT30;69592;44.804;-0.550;2023-04-25T15:00:41;17.82;65.48
80290;SHT30;69592;44.804;-0.550;2023-04-25T15:03:07;17.72;66.37
80290;SHT30;69592;44.804;-0.550;2023-04-25T15:05:34;17.60;68.09
80290;SHT30;69592;44.804;-0.550;2023-04-25T15:07:59;17.55;69.34
80290;SHT30;69592;44.804;-0.550;2023-04-25T15:10:25;17.42;69.49
80290;SHT30;69592;44.804;-0.550;2023-04-25T15:12:51;17.85;68.62
80290;SHT30;69592;44.804;-0.550;2023-04-25T15:15:19;17.82;67.09